createdAt,value
2022-11-10T00:03:04.492Z,10.20
2022-11-10T00:06:49.544Z,10.20
2022-11-10T00:10:31.970Z,10.20
2022-11-10T00:14:32.291Z,10.20
2022-11-10T00:18:14.166Z,10.20
2022-11-10T00:21:56.043Z,10.30
2022-11-10T00:25:37.878Z,10.30
2022-11-10T00:29:19.873Z,10.30
2022-11-10T00:33:01.680Z,10.40
2022-11-10T00:36:44.336Z,10.40
2022-11-10T00:40:26.201Z,10.40
2022-11-10T00:44:08.064Z,10.40
2022-11-10T00:47:49.904Z,10.40
2022-11-10T00:51:31.794Z,10.50
2022-11-10T00:55:13.760Z,10.50
2022-11-10T00:58:55.794Z,10.50
2022-11-10T01:02:37.796Z,10.50
2022-11-10T01:06:21.148Z,10.40
2022-11-10T01:10:03.300Z,10.40
2022-11-10T01:13:45.875Z,10.40
2022-11-10T01:17:30.110Z,10.50
2022-11-10T01:21:11.913Z,10.60
2022-11-10T01:24:53.955Z,10.60
2022-11-10T01:28:36.904Z,10.60
2022-11-10T01:32:18.884Z,10.60
2022-11-10T01:36:01.475Z,10.70
2022-11-10T01:39:43.307Z,10.70
2022-11-10T01:43:26.867Z,10.60
2022-11-10T01:47:09.036Z,10.60
2022-11-10T01:50:50.899Z,10.50
2022-11-10T01:54:36.263Z,10.60
2022-11-10T01:58:21.981Z,10.50
2022-11-10T02:02:15.757Z,10.50
2022-11-10T02:05:58.111Z,10.70
2022-11-10T02:09:40.211Z,10.60
2022-11-10T02:13:22.483Z,10.80
2022-11-10T02:17:05.767Z,10.90
2022-11-10T02:20:47.618Z,11.00
2022-11-10T02:24:29.427Z,10.90
2022-11-10T02:28:11.257Z,11.00
2022-11-10T02:31:53.151Z,11.00
2022-11-10T02:35:35.012Z,11.00
2022-11-10T02:39:16.835Z,11.00
2022-11-10T02:42:58.661Z,11.30
2022-11-10T02:46:40.838Z,11.20
2022-11-10T02:50:22.743Z,11.30
2022-11-10T02:54:06.196Z,11.40
2022-11-10T02:57:48.011Z,11.50
2022-11-10T03:01:29.939Z,11.70
2022-11-10T03:05:12.654Z,11.70
2022-11-10T03:08:54.473Z,11.80
2022-11-10T03:12:36.288Z,11.90
2022-11-10T03:16:18.180Z,12.00
2022-11-10T03:20:00.029Z,12.10
2022-11-10T03:23:41.871Z,12.00
2022-11-10T03:27:23.737Z,12.10
2022-11-10T03:31:05.815Z,12.20
2022-11-10T03:34:47.660Z,12.20
2022-11-10T03:38:29.525Z,12.20
2022-11-10T03:42:11.385Z,12.30
2022-11-10T03:45:53.249Z,12.30
2022-11-10T03:49:35.130Z,12.40
2022-11-10T03:53:16.961Z,12.40
2022-11-10T03:56:58.765Z,12.30
2022-11-10T04:00:40.639Z,12.40
2022-11-10T04:04:40.971Z,12.50
2022-11-10T04:08:41.243Z,12.40
2022-11-10T04:12:41.856Z,12.40
2022-11-10T04:16:23.669Z,12.40
2022-11-10T04:20:06.080Z,12.40
2022-11-10T04:23:47.902Z,12.50
2022-11-10T04:27:29.726Z,12.50
2022-11-10T04:31:13.983Z,12.50
2022-11-10T04:34:56.011Z,12.50
2022-11-10T04:38:38.475Z,12.60
2022-11-10T04:42:20.283Z,12.60
2022-11-10T04:46:03.222Z,12.60
2022-11-10T04:49:45.112Z,12.60
2022-11-10T04:53:27.003Z,12.70
2022-11-10T04:57:08.823Z,12.70
2022-11-10T05:00:50.768Z,12.70
2022-11-10T05:04:32.588Z,12.70
2022-11-10T05:08:15.023Z,12.70
2022-11-10T05:11:56.844Z,12.70
2022-11-10T05:15:41.451Z,12.70
2022-11-10T05:19:23.295Z,12.70
2022-11-10T05:23:23.662Z,12.70
2022-11-10T05:27:06.090Z,12.70
2022-11-10T05:30:48.010Z,12.70
2022-11-10T05:34:29.837Z,12.80
2022-11-10T05:38:11.832Z,12.80
2022-11-10T05:41:53.683Z,12.80
2022-11-10T05:45:35.522Z,12.80
2022-11-10T05:49:17.385Z,12.80
2022-11-10T05:52:59.214Z,12.80
2022-11-10T05:56:41.038Z,12.90
2022-11-10T06:00:25.804Z,12.80
2022-11-10T06:04:07.716Z,12.80
2022-11-10T06:07:49.561Z,12.80
2022-11-10T06:11:31.378Z,12.90
2022-11-10T06:15:13.827Z,12.90
2022-11-10T06:18:55.796Z,12.90
2022-11-10T06:22:37.712Z,12.90
2022-11-10T06:26:19.663Z,12.90
2022-11-10T06:30:01.707Z,13.00
2022-11-10T06:33:43.800Z,12.90
2022-11-10T06:37:25.677Z,12.90
2022-11-10T06:41:07.589Z,13.00
2022-11-10T06:44:49.430Z,12.90
2022-11-10T06:48:31.253Z,13.00
2022-11-10T06:52:13.168Z,13.00
2022-11-10T06:55:55.048Z,12.90
2022-11-10T06:59:36.904Z,13.00
2022-11-10T07:03:18.736Z,12.90
2022-11-10T07:07:00.664Z,13.00
2022-11-10T07:10:43.504Z,13.00
2022-11-10T07:14:25.395Z,12.90
2022-11-10T07:18:07.361Z,13.10
2022-11-10T07:21:49.190Z,13.00
2022-11-10T07:25:32.780Z,13.00
2022-11-10T07:29:14.590Z,13.10
2022-11-10T07:33:13.323Z,13.00
2022-11-10T07:36:55.177Z,13.10
2022-11-10T07:40:37.402Z,13.10
2022-11-10T07:44:19.398Z,13.20
2022-11-10T07:48:02.795Z,13.20
2022-11-10T07:51:44.631Z,13.10
2022-11-10T07:55:26.543Z,13.20
2022-11-10T07:59:08.491Z,13.30
2022-11-10T08:02:51.083Z,13.30
2022-11-10T08:06:36.361Z,13.20
2022-11-10T08:10:18.605Z,13.20
2022-11-10T08:14:00.531Z,13.30
2022-11-10T08:17:42.337Z,13.30
2022-11-10T08:21:24.162Z,13.30
2022-11-10T08:25:06.319Z,13.40
2022-11-10T08:28:48.330Z,13.40
2022-11-10T08:32:30.154Z,13.50
2022-11-10T08:36:11.957Z,13.50
2022-11-10T08:39:53.814Z,13.60
2022-11-10T08:43:35.700Z,13.70
2022-11-10T08:47:17.686Z,13.70
2022-11-10T08:51:00.493Z,13.70
2022-11-10T08:54:42.400Z,13.80
2022-11-10T08:58:24.779Z,13.80
2022-11-10T09:02:08.760Z,13.80
2022-11-10T09:05:57.713Z,13.80
2022-11-10T09:09:40.312Z,13.90
2022-11-10T09:13:27.662Z,13.90
2022-11-10T09:17:11.584Z,14.00
2022-11-10T09:20:53.619Z,14.00
2022-11-10T09:24:35.464Z,14.10
2022-11-10T09:28:17.985Z,14.20
2022-11-10T09:31:59.827Z,14.20
2022-11-10T09:35:43.015Z,14.20
2022-11-10T09:39:24.911Z,14.30
2022-11-10T09:43:13.819Z,14.30
2022-11-10T09:47:03.071Z,14.30
2022-11-10T09:50:54.143Z,14.30
2022-11-10T09:54:53.923Z,14.40
2022-11-10T09:58:44.039Z,14.40
2022-11-10T10:02:50.783Z,14.40
2022-11-10T10:06:50.008Z,14.40
2022-11-10T10:10:49.409Z,14.40
2022-11-10T10:15:02.044Z,14.50
2022-11-10T10:19:14.094Z,14.50
2022-11-10T10:23:08.071Z,14.50
2022-11-10T10:26:53.574Z,14.60
2022-11-10T10:30:35.428Z,14.70
2022-11-10T10:34:27.149Z,14.70
2022-11-10T10:38:25.604Z,14.70
2022-11-10T10:42:23.110Z,14.80
2022-11-10T10:46:11.735Z,14.80
2022-11-10T10:50:15.165Z,14.80
2022-11-10T10:53:57.051Z,14.80
2022-11-10T10:57:51.306Z,14.90
2022-11-10T11:01:37.208Z,14.90
2022-11-10T11:05:20.254Z,14.90
2022-11-10T11:09:08.488Z,15.00
2022-11-10T11:12:50.426Z,15.00
2022-11-10T11:16:46.778Z,15.00
2022-11-10T11:20:59.828Z,15.00
2022-11-10T11:25:16.261Z,15.00
2022-11-10T11:29:14.631Z,15.00
2022-11-10T11:33:29.208Z,15.00
2022-11-10T11:37:21.363Z,15.00
2022-11-10T11:41:40.148Z,15.00
2022-11-10T11:45:55.185Z,15.00
2022-11-10T11:50:11.373Z,15.10
2022-11-10T11:54:08.160Z,15.10
2022-11-10T11:57:55.804Z,15.00
2022-11-10T12:01:49.972Z,15.10
2022-11-10T12:06:00.327Z,15.00
2022-11-10T12:09:49.032Z,15.00
2022-11-10T12:13:37.052Z,15.00
2022-11-10T12:17:27.897Z,15.00
2022-11-10T12:21:18.786Z,15.00
2022-11-10T12:25:10.330Z,15.10
2022-11-10T12:29:13.007Z,15.00
2022-11-10T12:33:23.157Z,15.10
2022-11-10T12:37:07.771Z,15.10
2022-11-10T12:40:55.838Z,15.20
2022-11-10T12:44:48.701Z,15.30
2022-11-10T12:49:01.617Z,15.40
2022-11-10T12:52:58.064Z,15.50
2022-11-10T12:56:45.709Z,15.60
2022-11-10T13:00:37.563Z,15.60
2022-11-10T13:04:20.742Z,15.60
2022-11-10T13:08:30.512Z,15.60
2022-11-10T13:12:20.747Z,15.60
2022-11-10T13:16:02.562Z,15.60
2022-11-10T13:19:44.348Z,15.60
2022-11-10T13:23:49.175Z,15.50
2022-11-10T13:27:42.713Z,15.50
2022-11-10T13:31:27.615Z,15.50
2022-11-10T13:35:28.295Z,15.40
2022-11-10T13:39:33.648Z,15.40
2022-11-10T13:43:18.278Z,15.30
2022-11-10T13:47:09.241Z,15.40
2022-11-10T13:51:19.175Z,15.40
2022-11-10T13:55:23.140Z,15.30
2022-11-10T13:59:30.369Z,15.40
2022-11-10T14:03:50.315Z,15.40
2022-11-10T14:07:39.288Z,15.50
2022-11-10T14:11:27.310Z,15.50
2022-11-10T14:15:25.001Z,15.40
2022-11-10T14:19:19.416Z,15.40
2022-11-10T14:23:05.775Z,15.40
2022-11-10T14:26:53.754Z,15.40
2022-11-10T14:30:35.685Z,15.40
2022-11-10T14:34:18.649Z,15.50
2022-11-10T14:38:03.758Z,15.50
2022-11-10T14:41:47.489Z,15.40
2022-11-10T14:45:29.756Z,15.40
2022-11-10T14:49:11.688Z,15.40
2022-11-10T14:53:01.777Z,15.40
2022-11-10T14:56:44.007Z,15.30
2022-11-10T15:00:27.297Z,15.30
2022-11-10T15:04:12.021Z,15.20
2022-11-10T15:07:56.356Z,15.20
2022-11-10T15:11:53.200Z,15.20
2022-11-10T15:15:35.474Z,15.20
2022-11-10T15:19:31.592Z,15.20
2022-11-10T15:23:29.146Z,15.20
2022-11-10T15:27:31.916Z,15.10
2022-11-10T15:31:26.057Z,15.10
2022-11-10T15:35:30.393Z,15.00
2022-11-10T15:39:12.226Z,15.00
2022-11-10T15:43:26.641Z,15.00
2022-11-10T15:47:12.619Z,15.00
2022-11-10T15:50:56.070Z,15.00
2022-11-10T15:54:38.498Z,14.90
2022-11-10T15:58:23.330Z,14.90
2022-11-10T16:02:23.132Z,14.90
2022-11-10T16:06:05.300Z,14.90
2022-11-10T16:09:47.381Z,14.90
2022-11-10T16:13:32.276Z,14.90
2022-11-10T16:17:14.620Z,14.80
2022-11-10T16:20:57.065Z,14.80
2022-11-10T16:24:40.160Z,14.80
2022-11-10T16:28:25.356Z,14.80
2022-11-10T16:32:07.560Z,14.80
2022-11-10T16:35:51.910Z,14.80
2022-11-10T16:39:33.805Z,14.80
2022-11-10T16:43:19.617Z,14.80
2022-11-10T16:47:01.875Z,14.80
2022-11-10T16:50:45.171Z,14.80
2022-11-10T16:54:27.086Z,14.80
2022-11-10T16:58:08.901Z,14.80
2022-11-10T17:01:52.674Z,14.80
2022-11-10T17:05:35.260Z,14.80
2022-11-10T17:09:23.480Z,14.80
2022-11-10T17:13:05.615Z,14.80
2022-11-10T17:16:47.671Z,14.80
2022-11-10T17:20:35.073Z,14.80
2022-11-10T17:24:17.459Z,14.80
2022-11-10T17:27:59.281Z,14.80
2022-11-10T17:31:41.117Z,14.80
2022-11-10T17:35:24.251Z,14.70
2022-11-10T17:39:06.475Z,14.70
2022-11-10T17:42:48.806Z,14.80
2022-11-10T17:46:30.656Z,14.80
2022-11-10T17:50:12.518Z,14.80
2022-11-10T17:53:55.118Z,14.80
2022-11-10T17:57:37.057Z,14.80
2022-11-10T18:01:20.100Z,14.80
2022-11-10T18:05:01.940Z,14.80
2022-11-10T18:08:44.131Z,14.80
2022-11-10T18:12:28.088Z,14.90
2022-11-10T18:16:11.712Z,14.80
2022-11-10T18:19:53.528Z,14.80
2022-11-10T18:23:35.786Z,14.90
2022-11-10T18:27:17.641Z,14.90
2022-11-10T18:31:08.255Z,14.90
2022-11-10T18:34:50.110Z,14.90
2022-11-10T18:38:32.509Z,14.90
2022-11-10T18:42:14.633Z,14.90
2022-11-10T18:45:56.464Z,14.90
2022-11-10T18:49:38.318Z,14.90
2022-11-10T18:53:20.266Z,14.90
2022-11-10T18:57:02.232Z,14.90
2022-11-10T19:00:44.048Z,14.90
2022-11-10T19:04:25.885Z,14.90
2022-11-10T19:08:08.140Z,14.90
2022-11-10T19:11:50.024Z,14.90
2022-11-10T19:15:31.839Z,14.80
2022-11-10T19:19:14.001Z,14.80
2022-11-10T19:22:55.824Z,14.70
2022-11-10T19:26:38.300Z,14.70
2022-11-10T19:30:20.100Z,14.80
2022-11-10T19:34:02.266Z,14.70
2022-11-10T19:37:44.594Z,14.70
2022-11-10T19:41:31.413Z,14.70
2022-11-10T19:45:15.447Z,14.70
2022-11-10T19:48:57.384Z,14.70
2022-11-10T19:52:39.171Z,14.80
2022-11-10T19:56:26.249Z,14.70
2022-11-10T20:00:12.556Z,14.80
2022-11-10T20:03:54.851Z,14.60
2022-11-10T20:07:55.290Z,14.70
2022-11-10T20:11:37.214Z,14.70
2022-11-10T20:15:19.065Z,14.70
2022-11-10T20:19:01.339Z,14.80
2022-11-10T20:22:43.155Z,14.90
2022-11-10T20:26:25.664Z,14.80
2022-11-10T20:30:08.138Z,14.80
2022-11-10T20:33:51.579Z,14.80
2022-11-10T20:37:34.244Z,14.70
2022-11-10T20:41:19.137Z,14.90
2022-11-10T20:45:01.003Z,14.90
2022-11-10T20:48:43.611Z,14.80
2022-11-10T20:52:25.631Z,14.90
2022-11-10T20:56:08.458Z,14.90
2022-11-10T20:59:50.283Z,14.80
2022-11-10T21:03:33.056Z,14.90
2022-11-10T21:07:14.957Z,15.00
2022-11-10T21:10:59.406Z,15.00
2022-11-10T21:14:41.374Z,14.90
2022-11-10T21:18:25.139Z,14.90
2022-11-10T21:22:07.028Z,14.90
2022-11-10T21:26:00.173Z,15.00
2022-11-10T21:29:42.449Z,14.90
2022-11-10T21:33:24.488Z,14.90
2022-11-10T21:37:07.086Z,14.90
2022-11-10T21:40:49.227Z,14.90
2022-11-10T21:44:31.108Z,14.90
2022-11-10T21:48:12.967Z,15.00
2022-11-10T21:51:54.865Z,14.90
2022-11-10T21:55:36.723Z,15.00
2022-11-10T21:59:19.369Z,15.00
2022-11-10T22:03:02.618Z,14.90
2022-11-10T22:07:02.982Z,15.00
2022-11-10T22:11:03.402Z,15.00
2022-11-10T22:15:03.923Z,15.00
2022-11-10T22:18:46.653Z,14.90
2022-11-10T22:22:28.484Z,15.00
2022-11-10T22:26:11.203Z,15.00
2022-11-10T22:29:53.068Z,15.00
2022-11-10T22:33:36.851Z,15.00
2022-11-10T22:37:18.656Z,15.00
2022-11-10T22:41:36.039Z,15.10
2022-11-10T22:45:17.887Z,15.00
2022-11-10T22:48:59.922Z,15.00
2022-11-10T22:52:41.738Z,15.10
2022-11-10T22:56:23.879Z,15.20
2022-11-10T23:00:06.320Z,15.10
2022-11-10T23:03:48.199Z,15.10
2022-11-10T23:07:30.075Z,15.10
2022-11-10T23:11:14.267Z,15.10
2022-11-10T23:14:56.089Z,15.20
2022-11-10T23:18:40.224Z,15.10
2022-11-10T23:22:22.024Z,15.10
2022-11-10T23:26:08.128Z,15.10
2022-11-10T23:29:49.938Z,15.10
2022-11-10T23:33:33.283Z,15.10
2022-11-10T23:37:15.610Z,15.10
2022-11-10T23:40:58.564Z,15.10
2022-11-10T23:44:40.414Z,15.10
2022-11-10T23:48:22.811Z,15.20
2022-11-10T23:52:05.119Z,15.10
2022-11-10T23:55:55.812Z,15.10
2022-11-10T23:59:37.623Z,15.20
